Latest Weather Observations for PORTABLE QFRJ (North Tamborine)

IDQ60801

Issued at 6:52 am EST Wednesday 23 January 2019 (issued every 10 minutes, with the page automatically refreshed every 10 minutes)

About weather observations | Map of weather stations | Latest weather observations for QLD | Other Formats
Station Details ID: 250074 Name: PORTABLE QFRJ (NORTH TAMBORINE) Lat: -27.94 Lon: 153.19 Height: 527.0 m
Data from the previous 72 hours. | See also: Recent months for locations in Queensland
Date/Time
EST
Temp
°C
App
Temp
°C
Dew
Point
°C
Rel
Hum
%
Delta-T
°C
Wind Press
QNH
hPa
Press
MSL
hPa
Rain since
9am
mm
Dir  Spd
km/h
Gust
km/h
Spd
kts
Gust
kts
23/06:40am 20.7 21.7 19.4 92 0.8 WNW 13 17 7 9 - - 0.0
23/06:30am 20.7 22.1 19.5 93 0.8 WNW 11 13 6 7 - - 0.0
23/06:20am 20.6 21.5 19.3 92 0.8 NW 13 17 7 9 - - 0.0
23/06:10am 20.7 21.7 19.4 92 0.8 WNW 13 17 7 9 - - 0.0
23/06:00am 20.7 21.7 19.4 92 0.8 WNW 13 15 7 8 - - 0.0
23/05:50am 20.7 22.1 19.5 93 0.8 WNW 11 15 6 8 - - 0.0
23/05:40am 20.5 22.3 19.6 95 0.6 WNW 9 11 5 6 - - 0.0
23/05:30am 20.5 22.4 19.7 95 0.5 WNW 9 11 5 6 - - 0.0
23/05:20am 20.5 22.3 19.6 95 0.6 WNW 9 15 5 8 - - 0.0
23/05:10am 20.4 22.0 19.2 93 0.8 WNW 9 15 5 8 - - 0.0
23/05:00am 20.4 22.1 19.4 94 0.6 WNW 9 11 5 6 - - 0.0
23/04:40am 20.5 21.9 19.5 94 0.6 NW 11 13 6 7 - - 0.0
23/04:30am 20.5 22.3 19.6 95 0.6 NW 9 11 5 6 - - 0.0
23/04:20am 20.5 22.4 19.7 95 0.5 NW 9 13 5 7 - - 0.0
23/04:10am 20.5 22.0 19.7 95 0.5 NW 11 15 6 8 - - 0.0
23/04:00am 20.5 22.4 19.8 96 0.5 NW 9 11 5 6 - - 0.0
23/03:50am 20.5 23.0 19.8 96 0.5 NNW 6 9 3 5 - - 0.0
23/03:40am 20.4 22.3 19.8 96 0.4 NW 9 11 5 6 - - 0.0
23/03:30am 20.4 22.3 19.7 96 0.5 NW 9 11 5 6 - - 0.0
23/03:20am 20.3 22.2 19.7 96 0.4 NW 9 11 5 6 - - 0.0
23/03:10am 20.3 22.2 19.7 96 0.4 NW 9 11 5 6 - - 0.0
23/03:00am 20.4 22.6 19.7 96 0.5 NW 7 11 4 6 - - 0.0
23/02:50am 20.3 22.1 19.6 96 0.5 NW 9 11 5 6 - - 0.0
23/02:40am 20.3 21.7 19.5 95 0.5 NW 11 13 6 7 - - 0.0
23/02:30am 20.4 21.8 19.6 95 0.5 NW 11 17 6 9 - - 0.0
23/02:20am 20.5 22.4 19.7 95 0.5 NNW 9 11 5 6 - - 0.0
23/02:10am 20.6 22.1 19.8 95 0.5 NNW 11 15 6 8 - - 0.0
23/02:00am 20.7 23.0 19.9 95 0.5 NNW 7 11 4 6 - - 0.0
23/01:50am 20.7 23.0 19.9 95 0.5 NNW 7 13 4 7 - - 0.0
23/01:40am 20.7 22.2 19.8 95 0.6 NW 11 13 6 7 - - 0.0
23/01:30am 20.6 22.1 19.8 95 0.5 NW 11 17 6 9 - - 0.0
23/01:20am 20.7 22.7 19.9 95 0.5 NW 9 13 5 7 - - 0.0
23/01:10am 20.7 22.3 19.9 95 0.5 NNW 11 13 6 7 - - 0.0
23/01:00am 20.7 23.2 19.8 95 0.6 N 6 9 3 5 - - 0.0
23/12:50am 20.6 23.0 19.7 95 0.6 N 6 9 3 5 - - 0.0
23/12:40am 20.6 22.8 19.7 95 0.6 N 7 9 4 5 - - 0.0
23/12:30am 20.6 23.4 19.6 94 0.6 N 4 6 2 3 - - 0.0
23/12:20am 20.6 23.4 19.6 94 0.6 N 4 7 2 4 - - 0.0
23/12:10am 20.6 23.0 19.6 94 0.6 NNE 6 7 3 4 - - 0.0
23/12:00am 20.7 23.1 19.7 94 0.7 NE 6 7 3 4 - - 0.0
 
Date/Time
EST
Temp
°C
App
Temp
°C
Dew
Point
°C
Rel
Hum
%
Delta-T
°C
Wind Press
QNH
hPa
Press
MSL
hPa
Rain since
9am
mm
Dir  Spd
km/h
Gust
km/h
Spd
kts
Gust
kts
22/11:50pm 20.7 22.9 19.7 94 0.7 NNE 7 11 4 6 - - 0.0
22/11:40pm 20.6 22.4 19.6 94 0.6 NE 9 11 5 6 - - 0.0
22/11:30pm 20.5 22.9 19.6 95 0.6 NE 6 7 3 4 - - 0.0
22/11:20pm 20.5 23.2 19.5 94 0.6 NE 4 7 2 4 - - 0.0
22/11:10pm 20.5 22.9 19.6 95 0.6 ENE 6 7 3 4 - - 0.0
22/11:00pm 20.5 22.9 19.6 95 0.6 NE 6 7 3 4 - - 0.0
22/10:50pm 20.5 22.9 19.6 95 0.6 ENE 6 7 3 4 - - 0.0
22/10:40pm 20.6 23.3 19.5 93 0.7 ENE 4 7 2 4 - - 0.0
22/10:30pm 20.7 23.5 19.6 93 0.7 ENE 4 6 2 3 - - 0.0
22/10:20pm 20.8 23.1 19.5 92 0.8 NE 6 9 3 5 - - 0.0
22/10:10pm 20.9 23.3 19.7 93 0.8 ENE 6 7 3 4 - - 0.0
22/10:00pm 21.0 23.3 19.8 93 0.8 ENE 7 9 4 5 - - 0.0
22/09:50pm 21.0 23.3 19.8 93 0.8 ENE 7 9 4 5 - - 0.0
22/09:40pm 21.1 23.6 19.8 92 0.8 NE 6 7 3 4 - - 0.0
22/09:30pm 21.1 23.9 19.7 92 0.9 NE 4 6 2 3 - - 0.0
22/09:20pm 21.1 23.7 20.0 93 0.7 ENE 6 7 3 4 - - 0.0
22/09:10pm 21.1 23.5 20.1 94 0.7 ENE 7 9 4 5 - - 0.0
22/09:00pm 21.1 23.5 20.1 94 0.7 E 7 9 4 5 - - 0.0
22/08:50pm 21.1 23.5 20.0 93 0.7 ENE 7 9 4 5 - - 0.0
22/08:40pm 21.1 23.5 20.0 93 0.7 E 7 7 4 4 - - 0.0
22/08:30pm 21.0 23.3 19.9 93 0.7 E 7 9 4 5 - - 0.0
22/08:20pm 21.0 23.3 19.8 93 0.8 E 7 9 4 5 - - 0.0
22/08:10pm 21.0 23.4 19.7 92 0.8 E 6 7 3 4 - - 0.0
22/08:00pm 21.0 23.2 19.7 92 0.8 E 7 11 4 6 - - 0.0
22/07:50pm 21.1 23.0 19.7 92 0.9 E 9 13 5 7 - - 0.0
22/07:40pm 21.2 23.1 19.8 92 0.9 E 9 11 5 6 - - 0.0
22/07:30pm 21.3 23.3 19.9 92 0.9 E 9 13 5 7 - - 0.0
22/07:20pm 21.3 22.9 19.9 92 0.9 E 11 13 6 7 - - 0.0
22/07:10pm 21.4 23.0 19.9 91 1.0 E 11 17 6 9 - - 0.0
22/07:00pm 21.4 22.6 19.9 91 1.0 E 13 19 7 10 - - 0.0
22/06:50pm 21.5 22.3 19.9 91 1.0 E 15 17 8 9 - - 0.0
22/06:40pm 21.6 22.4 19.9 90 1.1 E 15 20 8 11 - - 0.0
22/06:30pm 21.7 22.5 19.9 89 1.2 E 15 19 8 10 - - 0.0
22/06:20pm 21.9 22.7 19.9 88 1.3 E 15 20 8 11 - - 0.0
22/06:10pm 22.1 23.3 19.9 87 1.4 E 13 17 7 9 - - 0.0
22/06:00pm 22.2 23.7 19.8 86 1.6 E 11 15 6 8 - - 0.0
22/05:50pm 22.4 23.6 19.8 85 1.7 ENE 13 15 7 8 - - 0.0
22/05:40pm 22.6 24.4 19.5 82 2.0 ENE 9 13 5 7 - - 0.0
22/05:30pm 22.8 23.8 19.5 81 2.2 E 13 17 7 9 - - 0.0
22/05:20pm 23.2 24.6 19.5 80 2.4 ENE 11 19 6 10 - - 0.0
22/05:10pm 23.6 24.1 19.2 76 2.9 E 15 20 8 11 - - 0.0
22/05:00pm 24.2 25.0 19.1 73 3.3 E 13 17 7 9 - - 0.0
22/04:50pm 24.2 25.1 19.3 74 3.2 E 13 19 7 10 - - 0.0
22/04:40pm 24.3 24.9 19.4 74 3.2 E 15 19 8 10 - - 0.0
22/04:30pm 24.7 26.0 19.4 72 3.5 E 11 13 6 7 - - 0.0
22/04:20pm 24.6 25.7 19.6 73 3.3 ENE 13 20 7 11 - - 0.0
22/04:10pm 24.6 25.1 19.3 72 3.5 E 15 19 8 10 - - 0.0
22/04:00pm 24.8 25.2 19.1 70 3.7 E 15 20 8 11 - - 0.0
22/03:50pm 25.0 25.9 19.2 70 3.8 E 13 17 7 9 - - 0.0
22/03:40pm 24.9 25.6 18.9 69 3.9 E 13 19 7 10 - - 0.0
22/03:30pm 25.1 26.0 19.2 70 3.9 ENE 13 17 7 9 - - 0.0
22/03:20pm 25.3 26.1 19.0 68 4.1 E 13 20 7 11 - - 0.0
22/03:10pm 25.0 25.8 19.0 69 3.9 E 13 19 7 10 - - 0.0
22/03:00pm 25.4 26.6 19.0 67 4.2 ENE 11 19 6 10 - - 0.0
22/02:50pm 25.4 26.1 18.9 67 4.2 E 13 19 7 10 - - 0.0
22/02:40pm 25.3 25.7 19.1 68 4.1 ENE 15 19 8 10 - - 0.0
22/02:30pm 25.5 26.5 19.5 69 3.9 ENE 13 17 7 9 - - 0.0
22/02:20pm 26.2 26.9 18.8 63 4.8 ENE 13 17 7 9 - - 0.0
22/02:10pm 25.9 26.3 19.1 66 4.5 ENE 15 17 8 9 - - 0.0
22/02:00pm 25.7 26.3 18.6 65 4.6 ENE 13 20 7 11 - - 0.0
22/01:50pm 25.8 25.8 18.2 63 4.9 E 15 17 8 9 - - 0.0
22/01:40pm 25.4 25.8 19.1 68 4.1 E 15 20 8 11 - - 0.0
22/01:30pm 25.2 26.3 18.8 67 4.2 ENE 11 20 6 11 - - 0.0
22/01:20pm 25.8 26.4 18.5 64 4.7 ENE 13 15 7 8 - - 0.0
22/01:10pm 25.6 27.0 18.7 65 4.5 ENE 9 13 5 7 - - 0.0
22/01:00pm 25.0 25.2 17.6 63 4.7 E 13 19 7 10 - - 0.0
22/12:50pm 25.1 25.5 18.1 65 4.5 ESE 13 19 7 10 - - 0.0
22/12:40pm 25.4 26.2 18.2 64 4.6 ESE 11 15 6 8 - - 0.0
22/12:30pm 25.6 26.8 18.2 63 4.8 E 9 15 5 8 - - 0.0
22/12:20pm 25.4 26.2 18.1 64 4.7 ESE 11 15 6 8 - - 0.0
22/12:10pm 25.2 26.1 18.3 65 4.5 ESE 11 20 6 11 - - 0.0
22/12:00pm 24.8 25.9 17.9 65 4.4 ENE 9 13 5 7 - - 0.0
22/11:50am 25.1 25.9 18.2 65 4.4 ENE 11 19 6 10 - - 0.0
22/11:40am 25.4 26.7 18.4 65 4.5 ENE 9 15 5 8 - - 0.0
22/11:30am 25.5 27.1 18.3 64 4.7 ENE 7 13 4 7 - - 0.0
22/11:20am 24.8 26.0 18.2 66 4.2 ENE 9 15 5 8 - - 0.0
22/11:10am 25.2 26.9 18.0 64 4.6 NE 6 11 3 6 - - 0.0
22/11:00am 24.9 25.9 17.8 64 4.5 E 9 15 5 8 - - 0.0
22/10:50am 24.6 26.0 17.9 66 4.3 NE 7 11 4 6 - - 0.0
22/10:40am 24.3 25.3 17.7 66 4.2 ENE 9 13 5 7 - - 0.0
22/10:30am 24.3 25.3 17.7 66 4.2 E 9 15 5 8 - - 0.0
22/10:20am 24.6 25.1 17.5 64 4.5 E 11 17 6 9 - - 0.0
22/10:00am 25.3 26.2 18.4 65 4.5 ESE 11 13 6 7 - - 0.0
22/09:50am 24.7 25.0 18.0 66 4.3 ESE 13 17 7 9 - - 0.0
22/09:40am 24.7 25.2 18.3 67 4.1 ESE 13 17 7 9 - - 0.0
22/09:30am 24.2 24.5 17.8 67 4.1 E 13 17 7 9 - - 0.0
22/09:20am 23.7 24.7 17.8 69 3.8 E 9 13 5 7 - - 0.0
22/09:10am 23.8 25.3 17.7 68 3.9 ENE 6 9 3 5 - - 0.0
22/09:00am 23.3 24.7 17.8 71 3.5 ENE 7 9 4 5 - - 0.0
22/08:50am 23.5 23.1 17.2 67 4.0 ESE 15 17 8 9 - - 0.0
22/08:40am 23.2 23.9 18.0 72 3.3 E 11 17 6 9 - - 0.0
22/08:30am 23.0 24.8 18.4 75 3.0 ENE 6 11 3 6 - - 0.0
22/08:20am 22.0 23.7 18.1 78 2.5 E 6 7 3 4 - - 0.0
22/08:10am 22.0 23.6 18.3 79 2.4 ENE 7 11 4 6 - - 0.0
22/08:00am 22.0 23.9 18.6 81 2.2 ENE 6 11 3 6 - - 0.0
22/07:50am 22.1 23.4 18.5 80 2.3 E 9 11 5 6 - - 0.0
22/07:40am 22.1 24.1 19.2 83 1.9 ENE 7 9 4 5 - - 0.0
22/07:30am 22.2 23.2 18.7 80 2.3 E 11 13 6 7 - - 0.0
22/07:20am 22.0 23.2 19.0 83 1.9 ESE 11 15 6 8 - - 0.0
22/07:10am 21.7 22.9 19.1 85 1.7 E 11 15 6 8 - - 0.0
22/07:00am 21.4 22.6 19.0 86 1.5 E 11 15 6 8 - - 0.0
22/06:50am 21.1 22.7 19.1 88 1.3 E 9 13 5 7 - - 0.0
22/06:40am 21.0 22.5 19.0 88 1.3 E 9 13 5 7 - - 0.0
22/06:30am 20.6 22.7 19.3 92 0.8 ESE 7 13 4 7 - - 0.0
22/06:20am 20.2 22.4 19.3 95 0.6 ENE 6 6 3 3 - - 0.0
22/06:10am 20.1 22.3 19.3 95 0.5 E 6 9 3 5 - - 0.0
22/06:00am 20.0 22.2 19.3 96 0.5 E 6 7 3 4 - - 0.0
22/05:50am 19.9 22.1 19.2 96 0.5 E 6 7 3 4 - - 0.0
22/05:40am 19.8 22.4 19.2 96 0.4 E 4 6 2 3 - - 0.0
22/05:30am 19.8 22.3 19.1 96 0.4 ENE 4 6 2 3 - - 0.0
22/05:20am 19.7 22.2 19.0 96 0.4 E 4 4 2 2 - - 0.0
22/05:10am 19.7 22.2 19.0 96 0.4 E 4 7 2 4 - - 0.0
22/05:00am 19.7 22.2 19.0 96 0.4 ENE 4 4 2 2 - - 0.0
22/04:50am 19.7 22.2 19.0 96 0.4 ENE 4 6 2 3 - - 0.0
22/04:40am 19.7 21.8 19.0 96 0.4 E 6 7 3 4 - - 0.0
22/04:30am 19.7 21.8 18.9 95 0.5 ENE 6 7 3 4 - - 0.0
22/04:20am 19.7 21.8 18.9 95 0.5 ENE 6 7 3 4 - - 0.0
22/04:10am 19.7 21.8 18.9 95 0.5 E 6 7 3 4 - - 0.0
22/04:00am 19.8 21.9 19.0 95 0.5 E 6 9 3 5 - - 0.0
22/03:50am 19.7 21.8 18.9 95 0.5 E 6 7 3 4 - - 0.0
22/03:40am 19.7 22.1 18.9 95 0.5 E 4 6 2 3 - - 0.0
22/03:30am 19.6 22.4 18.9 96 0.4 E 2 4 1 2 - - 0.0
22/03:20am 19.6 22.4 18.8 95 0.5 ENE 2 6 1 3 - - 0.0
22/03:10am 19.6 21.6 18.8 95 0.5 ENE 6 7 3 4 - - 0.0
22/03:00am 19.6 21.6 18.8 95 0.5 ENE 6 7 3 4 - - 0.0
22/02:50am 19.7 21.7 18.8 94 0.6 ENE 6 7 3 4 - - 0.0
22/02:40am 19.7 21.7 18.8 94 0.6 E 6 7 3 4 - - 0.0
22/02:30am 19.7 22.1 18.8 94 0.6 ENE 4 6 2 3 - - 0.0
22/02:20am 19.8 21.8 18.8 94 0.6 ENE 6 6 3 3 - - 0.0
22/02:10am 19.8 21.8 18.8 94 0.6 ENE 6 7 3 4 - - 0.0
22/02:00am 19.8 21.6 18.8 94 0.6 ENE 7 9 4 5 - - 0.0
22/01:50am 19.9 21.7 18.8 93 0.7 E 7 9 4 5 - - 0.0
22/01:40am 19.9 21.9 18.7 93 0.8 E 6 7 3 4 - - 0.0
22/01:30am 19.9 21.9 18.7 93 0.8 E 6 7 3 4 - - 0.0
22/01:20am 19.9 21.9 18.7 93 0.8 E 6 7 3 4 - - 0.0
22/01:10am 19.9 21.7 18.7 93 0.8 E 7 9 4 5 - - 0.0
22/01:00am 19.9 21.9 18.7 93 0.8 E 6 7 3 4 - - 0.0
22/12:50am 19.9 21.8 18.6 92 0.8 E 6 7 3 4 - - 0.0
22/12:40am 19.9 21.8 18.6 92 0.8 E 6 9 3 5 - - 0.0
22/12:30am 19.8 21.5 18.6 93 0.8 E 7 9 4 5 - - 0.0
22/12:20am 19.8 22.2 18.7 93 0.7 E 4 7 2 4 - - 0.0
22/12:10am 19.8 22.5 18.7 93 0.7 ESE 2 4 1 2 - - 0.0
22/12:00am 19.7 22.8 18.6 93 0.7 CALM 0 4 0 2 - - 0.0
 
Date/Time
EST
Temp
°C
App
Temp
°C
Dew
Point
°C
Rel
Hum
%
Delta-T
°C
Wind Press
QNH
hPa
Press
MSL
hPa
Rain since
9am
mm
Dir  Spd
km/h
Gust
km/h
Spd
kts
Gust
kts
21/11:50pm 19.8 22.1 18.6 93 0.8 E 4 6 2 3 - - 0.0
21/11:40pm 19.9 21.8 18.6 92 0.8 E 6 7 3 4 - - 0.0
21/11:30pm 20.0 22.0 18.7 92 0.8 E 6 9 3 5 - - 0.0
21/11:20pm 20.0 21.8 18.7 92 0.8 E 7 9 4 5 - - 0.0
21/11:10pm 20.0 21.4 18.7 92 0.8 E 9 9 5 5 - - 0.0
21/11:00pm 20.1 21.9 18.7 92 0.9 E 7 9 4 5 - - 0.0
21/10:50pm 20.1 21.5 18.6 91 1.0 E 9 11 5 6 - - 0.0
21/10:40pm 20.1 21.1 18.6 91 1.0 E 11 13 6 7 - - 0.0
21/10:30pm 20.1 21.5 18.6 91 1.0 E 9 11 5 6 - - 0.0
21/10:20pm 20.2 21.2 18.6 90 1.0 E 11 13 6 7 - - 0.0
21/10:10pm 20.2 21.2 18.7 91 1.0 E 11 13 6 7 - - 0.0
21/10:00pm 20.3 21.3 18.7 90 1.0 ESE 11 13 6 7 - - 0.0
21/09:50pm 20.3 20.9 18.7 90 1.0 E 13 17 7 9 - - 0.0
21/09:40pm 20.5 20.8 18.7 89 1.2 E 15 17 8 9 - - 0.0
21/09:30pm 20.6 20.9 18.7 89 1.2 E 15 17 8 9 - - 0.0
21/09:20pm 20.6 20.8 18.6 88 1.3 ESE 15 17 8 9 - - 0.0
21/09:10pm 20.5 21.1 18.6 89 1.2 ESE 13 15 7 8 - - 0.0
21/09:00pm 20.4 21.0 18.5 89 1.2 ESE 13 17 7 9 - - 0.0
21/08:50pm 20.5 20.7 18.5 88 1.3 ESE 15 17 8 9 - - 0.0
21/08:40pm 20.5 20.7 18.6 89 1.2 E 15 17 8 9 - - 0.0
21/08:30pm 20.5 20.7 18.6 89 1.2 E 15 19 8 10 - - 0.0
21/08:20pm 20.6 20.1 18.6 88 1.3 E 19 20 10 11 - - 0.0
21/08:10pm 20.7 20.2 18.7 88 1.3 E 19 20 10 11 - - 0.0
21/08:00pm 20.8 20.7 18.7 88 1.3 E 17 19 9 10 - - 0.0
21/07:50pm 20.8 20.7 18.7 88 1.3 E 17 20 9 11 - - 0.0
21/07:40pm 20.8 20.7 18.7 88 1.3 ESE 17 20 9 11 - - 0.0
21/07:30pm 20.8 20.7 18.7 88 1.3 E 17 19 9 10 - - 0.0
21/07:20pm 20.9 21.2 18.7 87 1.4 E 15 19 8 10 - - 0.0
21/07:10pm 21.0 20.8 18.6 86 1.5 E 17 20 9 11 - - 0.0
21/07:00pm 21.0 20.8 18.6 86 1.5 E 17 19 9 10 - - 0.0
21/06:50pm 21.1 20.9 18.4 84 1.7 E 17 19 9 10 - - 0.0
21/06:40pm 21.3 21.5 18.5 84 1.8 E 15 19 8 10 - - 0.0
21/06:30pm 21.5 21.7 18.5 83 1.9 E 15 17 8 9 - - 0.0
21/06:20pm 21.8 21.9 18.3 80 2.2 E 15 20 8 11 - - 0.0
21/06:10pm 22.1 22.2 18.3 79 2.4 ESE 15 19 8 10 - - 0.0
21/06:00pm 22.3 21.9 18.1 77 2.7 ESE 17 22 9 12 - - 0.0
21/05:50pm 22.6 22.6 18.2 76 2.8 ESE 15 20 8 11 - - 0.0
21/05:40pm 22.6 21.7 18.2 76 2.8 E 20 26 11 14 - - 0.0
21/05:30pm 22.9 22.1 18.1 74 3.1 E 19 22 10 12 - - 0.0
21/05:20pm 23.0 22.0 18.0 73 3.2 E 20 24 11 13 - - 0.0
21/05:10pm 23.2 22.2 18.0 72 3.3 ESE 20 26 11 14 - - 0.0
21/05:00pm 23.5 23.0 17.9 71 3.6 ESE 17 26 9 14 - - 0.0
21/04:50pm 23.6 22.9 18.2 71 3.5 E 19 22 10 12 - - 0.0
21/04:40pm 23.6 22.7 18.1 71 3.5 E 20 24 11 13 - - 0.0
21/04:30pm 23.8 23.0 17.9 69 3.8 E 19 20 10 11 - - 0.0
21/04:20pm 23.9 23.2 18.2 70 3.7 E 19 24 10 13 - - 0.0
21/04:10pm 24.2 23.4 18.1 68 3.9 E 19 26 10 14 - - 0.0
21/04:00pm 24.5 24.2 18.2 68 4.1 E 17 22 9 12 - - 0.0
21/03:50pm 24.3 23.5 18.1 68 4.0 E 19 22 10 12 - - 0.0
21/03:40pm 24.5 23.9 18.5 69 3.9 E 19 24 10 13 - - 0.0
21/03:30pm 24.2 23.0 18.3 69 3.8 E 22 26 12 14 - - 0.0
21/03:20pm 24.5 23.2 18.2 68 4.1 E 22 26 12 14 - - 0.0
21/03:10pm 24.7 23.9 18.5 68 4.0 E 20 26 11 14 - - 0.0
21/03:00pm 25.0 24.2 18.5 67 4.2 E 20 26 11 14 - - 0.0
21/02:50pm 25.1 24.5 18.5 67 4.3 E 19 22 10 12 - - 0.0
21/02:40pm 25.2 24.7 18.7 67 4.2 E 19 24 10 13 - - 0.0
21/02:30pm 25.1 24.5 18.5 67 4.3 E 19 28 10 15 - - 0.0
21/02:20pm 25.2 24.5 18.6 67 4.3 E 20 24 11 13 - - 0.0
21/02:10pm 25.3 24.7 18.5 66 4.4 E 19 24 10 13 - - 0.0
21/02:00pm 25.6 25.0 18.4 64 4.7 E 19 22 10 12 - - 0.0
21/01:50pm 26.0 25.5 17.9 61 5.2 E 17 20 9 11 - - 0.0
21/01:40pm 25.7 25.2 17.7 61 5.1 E 17 20 9 11 - - 0.0
21/01:30pm 25.9 25.4 17.9 61 5.1 E 17 24 9 13 - - 0.0
21/01:20pm 26.0 26.2 17.6 60 5.4 E 13 19 7 10 - - 0.0
21/01:10pm 25.5 25.2 17.4 61 5.2 E 15 24 8 13 - - 0.0
21/01:00pm 25.6 25.3 17.3 60 5.3 E 15 20 8 11 - - 0.0
21/12:50pm 26.0 25.6 17.2 58 5.6 E 15 20 8 11 - - 0.0
21/12:40pm 26.0 25.1 16.9 57 5.8 E 17 20 9 11 - - 0.0
21/12:30pm 26.4 25.6 17.2 57 5.9 ESE 17 19 9 10 - - 0.0
21/12:20pm 26.3 26.0 17.3 57 5.7 ESE 15 22 8 12 - - 0.0
21/12:10pm 26.5 26.4 16.9 55 6.1 ESE 13 19 7 10 - - 0.0
21/12:00pm 25.8 25.3 16.9 58 5.6 E 15 20 8 11 - - 0.0
21/11:50am 25.8 24.9 16.9 58 5.6 ESE 17 20 9 11 - - 0.0
21/11:40am 25.7 24.9 17.1 59 5.5 ESE 17 22 9 12 - - 0.0
21/11:30am 25.3 24.9 17.2 61 5.1 E 15 19 8 10 - - 0.0
21/11:20am 25.8 26.3 17.5 60 5.3 ESE 11 19 6 10 - - 0.0
21/11:10am 25.5 25.2 17.3 60 5.2 E 15 20 8 11 - - 0.0
21/11:00am 25.2 25.0 17.5 62 4.9 ESE 15 17 8 9 - - 0.0
21/10:50am 25.4 25.5 17.5 61 5.0 ESE 13 19 7 10 - - 0.0
21/10:40am 25.0 25.3 17.8 64 4.6 ESE 13 17 7 9 - - 0.0
21/10:30am 25.6 25.8 17.7 61 5.1 ESE 13 17 7 9 - - 0.0
21/10:20am 25.2 25.6 17.2 61 5.1 E 11 17 6 9 - - 0.0
21/10:00am 24.3 24.6 17.9 67 4.1 E 13 19 7 10 - - 0.0
21/09:50am 23.5 24.1 17.8 70 3.6 E 11 15 6 8 - - 0.0
21/09:40am 23.0 23.8 18.2 74 3.1 E 11 17 6 9 - - 0.0
21/09:30am 22.6 23.3 18.8 79 2.5 E 13 15 7 8 - - 0.0
21/09:20am 22.7 23.3 18.7 78 2.6 E 13 17 7 9 - - 0.0
21/09:10am 23.6 25.1 18.8 74 3.1 E 9 17 5 9 - - 0.0
21/09:00am 23.0 23.9 18.4 75 3.0 E 11 19 6 10 - - 0.0
21/08:50am 22.3 23.5 19.0 81 2.1 E 11 15 6 8 - - 0.0
21/08:40am 22.6 23.1 19.3 81 2.1 E 15 19 8 10 - - 0.0
21/08:30am 23.2 23.6 18.9 77 2.8 E 15 20 8 11 - - 0.0
21/08:20am 23.4 24.0 18.5 74 3.2 ESE 13 19 7 10 - - 0.0
21/08:10am 22.3 24.2 18.6 79 2.4 ESE 6 11 3 6 - - 0.0
21/08:00am 21.8 23.3 18.9 83 1.9 ESE 9 15 5 8 - - 0.0
21/07:50am 21.7 23.2 18.9 84 1.8 SE 9 13 5 7 - - 0.0
21/07:40am 21.3 22.8 18.9 86 1.5 ESE 9 13 5 7 - - 0.0
21/07:30am 21.2 22.4 19.1 88 1.4 E 11 15 6 8 - - 0.0
21/07:20am 20.9 22.7 19.5 92 0.9 E 9 15 5 8 - - 0.0
21/07:10am 20.9 23.1 19.6 92 0.8 ESE 7 11 4 6 - - 0.0
21/07:00am 20.8 22.3 19.7 93 0.7 ESE 11 17 6 9 - - 0.0
21/06:50am 20.7 22.7 20.0 96 0.5 ESE 9 15 5 8 - - 0.0
21/06:40am 20.5 22.4 19.8 96 0.5 ESE 9 11 5 6 - - 0.0
21/06:30am 20.5 23.4 19.8 96 0.5 ESE 4 7 2 4 - - 0.0
21/06:20am 20.4 22.6 19.7 96 0.5 ESE 7 7 4 4 - - 0.0
21/06:10am 20.3 22.7 19.7 96 0.4 E 6 11 3 6 - - 0.0
21/06:00am 20.3 22.5 19.7 96 0.4 E 7 9 4 5 - - 0.0
21/05:50am 20.3 22.5 19.6 96 0.5 ESE 7 9 4 5 - - 0.0
21/05:40am 20.2 22.4 19.6 96 0.4 ESE 7 9 4 5 - - 0.0
21/05:30am 20.2 22.4 19.6 96 0.4 ESE 7 9 4 5 - - 0.0
21/05:20am 20.2 22.6 19.6 96 0.4 ESE 6 9 3 5 - - 0.0
21/05:10am 20.2 22.4 19.6 96 0.4 ESE 7 11 4 6 - - 0.0
21/05:00am 20.2 22.0 19.6 96 0.4 ESE 9 13 5 7 - - 0.0
21/04:50am 20.2 22.5 19.5 96 0.5 E 6 9 3 5 - - 0.0
21/04:40am 20.2 22.6 19.6 96 0.4 ESE 6 7 3 4 - - 0.0
21/04:30am 20.3 23.1 19.6 96 0.5 SE 4 6 2 3 - - 0.0
21/04:20am 20.3 23.1 19.6 96 0.5 SE 4 7 2 4 - - 0.0
21/04:10am 20.3 23.1 19.6 96 0.5 SE 4 6 2 3 - - 0.0
21/04:00am 20.3 23.1 19.6 96 0.5 ESE 4 6 2 3 - - 0.0
21/03:50am 20.3 22.7 19.6 96 0.5 ESE 6 6 3 3 - - 0.0
21/03:40am 20.3 22.5 19.6 96 0.5 E 7 7 4 4 - - 0.0
21/03:30am 20.3 22.7 19.6 96 0.5 E 6 7 3 4 - - 0.0
21/03:20am 20.3 22.7 19.6 96 0.5 E 6 7 3 4 - - 0.0
21/03:10am 20.4 22.8 19.6 95 0.5 E 6 6 3 3 - - 0.0
21/03:00am 20.4 23.2 19.6 95 0.5 E 4 6 2 3 - - 0.0
21/02:50am 20.4 23.2 19.6 95 0.5 E 4 6 2 3 - - 0.0
21/02:40am 20.4 22.8 19.6 95 0.5 E 6 6 3 3 - - 0.0
21/02:30am 20.4 23.2 19.6 95 0.5 E 4 6 2 3 - - 0.0
21/02:20am 20.4 23.2 19.6 95 0.5 E 4 6 2 3 - - 0.0
21/02:10am 20.4 23.5 19.6 95 0.5 E 2 2 1 1 - - 0.0
21/02:00am 20.4 23.6 19.7 96 0.5 ESE 2 4 1 2 - - 0.0
21/01:50am 20.4 23.5 19.6 95 0.5 E 2 6 1 3 - - 0.0
21/01:40am 20.4 22.8 19.6 95 0.5 E 6 7 3 4 - - 0.0
21/01:30am 20.4 23.1 19.5 95 0.6 E 4 6 2 3 - - 0.0
21/01:20am 20.4 22.7 19.5 95 0.6 ENE 6 9 3 5 - - 0.0
21/01:10am 20.4 22.8 19.6 95 0.5 E 6 6 3 3 - - 0.0
21/01:00am 20.5 23.3 19.6 95 0.6 ENE 4 7 2 4 - - 0.0
21/12:50am 20.5 23.2 19.5 94 0.6 E 4 6 2 3 - - 0.0
21/12:40am 20.5 22.8 19.5 94 0.6 ENE 6 7 3 4 - - 0.0
21/12:30am 20.5 22.8 19.5 94 0.6 ENE 6 6 3 3 - - 0.0
21/12:20am 20.5 23.2 19.5 94 0.6 ENE 4 6 2 3 - - 0.0
21/12:10am 20.5 22.8 19.5 94 0.6 E 6 7 3 4 - - 0.0
21/12:00am 20.5 23.2 19.5 94 0.6 E 4 6 2 3 - - 0.0
 
Date/Time
EST
Temp
°C
App
Temp
°C
Dew
Point
°C
Rel
Hum
%
Delta-T
°C
Wind Press
QNH
hPa
Press
MSL
hPa
Rain since
9am
mm
Dir  Spd
km/h
Gust
km/h
Spd
kts
Gust
kts
20/11:50pm 20.5 22.8 19.4 93 0.7 ESE 6 7 3 4 - - 0.0
20/11:40pm 20.6 22.7 19.4 93 0.8 E 7 9 4 5 - - 0.0
20/11:30pm 20.6 22.9 19.5 93 0.7 E 6 7 3 4 - - 0.0
20/11:20pm 20.6 22.9 19.5 93 0.7 E 6 7 3 4 - - 0.0
20/11:10pm 20.6 22.7 19.4 93 0.8 E 7 7 4 4 - - 0.0
20/11:00pm 20.6 22.8 19.3 92 0.8 ENE 6 9 3 5 - - 0.0
20/10:50pm 20.6 22.7 19.3 92 0.8 E 7 9 4 5 - - 0.0
20/10:40pm 20.6 22.6 19.2 92 0.9 E 7 9 4 5 - - 0.0
20/10:30pm 20.5 22.1 19.1 92 0.9 E 9 11 5 6 - - 0.0
20/10:20pm 20.4 22.0 19.1 92 0.8 E 9 11 5 6 - - 0.0
20/10:10pm 20.4 21.9 19.0 92 0.9 E 9 11 5 6 - - 0.0
20/10:00pm 20.5 22.0 19.0 91 1.0 E 9 11 5 6 - - 0.0
20/09:50pm 20.6 22.1 19.0 90 1.0 E 9 11 5 6 - - 0.0
20/09:40pm 20.6 22.1 18.8 89 1.2 E 9 11 5 6 - - 0.0
20/09:30pm 20.5 22.0 18.8 90 1.1 E 9 13 5 7 - - 0.0
20/09:20pm 20.4 21.5 18.8 90 1.0 E 11 13 6 7 - - 0.0
20/09:10pm 20.5 21.6 18.8 90 1.1 E 11 13 6 7 - - 0.0
20/09:00pm 20.5 21.2 18.8 90 1.1 E 13 15 7 8 - - 0.0
20/08:50pm 20.5 21.1 18.7 89 1.2 E 13 15 7 8 - - 0.0
20/08:40pm 20.5 21.2 18.8 90 1.1 E 13 15 7 8 - - 0.0
20/08:30pm 20.6 21.2 18.7 89 1.2 E 13 17 7 9 - - 0.0
20/08:20pm 20.6 20.9 18.7 89 1.2 E 15 19 8 10 - - 0.0
20/08:10pm 20.6 20.9 18.8 89 1.2 E 15 17 8 9 - - 0.0
20/08:00pm 20.7 21.0 18.8 89 1.2 E 15 17 8 9 - - 0.0
20/07:50pm 20.7 21.0 18.7 88 1.3 E 15 17 8 9 - - 0.0
20/07:40pm 20.8 21.0 18.5 87 1.5 E 15 19 8 10 - - 0.0
20/07:30pm 20.9 20.7 18.5 86 1.5 E 17 19 9 10 - - 0.0
20/07:20pm 20.9 20.7 18.4 85 1.6 E 17 19 9 10 - - 0.0
20/07:10pm 21.1 21.2 18.4 84 1.7 E 15 17 8 9 - - 0.0
20/07:00pm 21.2 20.9 18.2 83 1.9 E 17 19 9 10 - - 0.0
20/06:50pm 21.3 21.4 18.3 83 1.9 E 15 19 8 10 - - 0.0
20/06:40pm 21.5 21.2 18.2 81 2.1 E 17 17 9 9 - - 0.0
20/06:30pm 21.6 21.3 18.3 81 2.1 E 17 19 9 10 - - 0.0
20/06:20pm 21.7 21.4 18.2 80 2.2 E 17 19 9 10 - - 0.0
20/06:10pm 21.9 21.6 18.3 80 2.3 E 17 22 9 12 - - 0.0
20/06:00pm 22.1 21.4 18.2 78 2.5 E 19 20 10 11 - - 0.0
20/05:50pm 22.5 21.8 18.2 76 2.7 E 19 24 10 13 - - 0.0
20/05:40pm 22.8 21.9 18.3 76 2.9 E 20 22 11 12 - - 0.0
20/05:30pm 23.2 22.6 18.4 74 3.1 E 19 22 10 12 - - 0.0
20/05:20pm 23.5 22.9 18.5 73 3.2 E 19 24 10 13 - - 0.0
20/05:10pm 23.6 22.9 18.6 73 3.2 E 20 24 11 13 - - 0.0
20/05:00pm 23.8 23.2 18.5 72 3.4 E 19 24 10 13 - - 0.0
20/04:50pm 23.8 23.1 18.6 72 3.4 E 20 22 11 12 - - 0.0
20/04:40pm 23.7 23.1 18.5 72 3.4 E 19 24 10 13 - - 0.0
20/04:30pm 23.8 23.6 18.6 72 3.4 E 17 20 9 11 - - 0.0
20/04:20pm 23.7 23.5 18.6 73 3.3 E 17 19 9 10 - - 0.0
20/04:10pm 24.0 23.5 18.6 72 3.5 E 19 22 10 12 - - 0.0
20/04:00pm 24.2 23.7 18.6 71 3.6 E 19 24 10 13 - - 0.0
20/03:50pm 24.3 23.8 18.7 71 3.6 E 19 24 10 13 - - 0.0
20/03:40pm 24.8 24.3 18.6 68 4.0 E 19 22 10 12 - - 0.0
20/03:30pm 25.0 24.2 18.4 66 4.3 E 20 24 11 13 - - 0.0
20/03:20pm 25.2 24.4 18.4 66 4.4 E 20 24 11 13 - - 0.0
20/03:10pm 25.2 24.9 18.3 65 4.5 E 17 19 9 10 - - 0.0
20/03:00pm 25.1 24.5 18.4 66 4.3 E 19 22 10 12 - - 0.0
20/02:50pm 25.6 25.4 18.5 65 4.6 ESE 17 22 9 12 - - 0.0
20/02:40pm 26.2 26.2 18.1 61 5.2 ESE 15 20 8 11 - - 0.0
20/02:30pm 25.9 25.9 18.1 62 5.0 E 15 19 8 10 - - 0.0
20/02:20pm 26.1 26.4 18.0 61 5.2 E 13 17 7 9 - - 0.0
20/02:10pm 25.7 25.2 17.9 62 5.0 E 17 19 9 10 - - 0.0
20/02:00pm 26.0 25.6 18.1 61 5.1 E 17 20 9 11 - - 0.0
20/01:50pm 26.1 25.6 17.9 60 5.3 ESE 17 22 9 12 - - 0.0
20/01:40pm 26.0 25.9 17.8 60 5.3 E 15 20 8 11 - - 0.0
20/01:30pm 26.2 25.9 17.4 58 5.6 E 15 20 8 11 - - 0.0
20/01:20pm 26.1 26.6 17.5 59 5.5 E 11 15 6 8 - - 0.0
20/01:10pm 25.7 26.0 17.8 61 5.1 E 13 19 7 10 - - 0.0
20/01:00pm 26.0 26.7 18.0 61 5.2 E 11 15 6 8 - - 0.0
20/12:50pm 26.2 26.5 17.8 60 5.4 ENE 13 19 7 10 - - 0.0
20/12:40pm 26.7 26.9 17.7 57 5.8 ESE 13 19 7 10 - - 0.0
20/12:30pm 26.5 27.0 17.5 57 5.8 E 11 19 6 10 - - 0.0
20/12:20pm 26.5 27.1 17.8 58 5.6 ENE 11 13 6 7 - - 0.0
20/12:10pm 26.3 27.1 17.4 58 5.7 ENE 9 13 5 7 - - 0.0
20/12:00pm 26.2 26.5 17.8 60 5.4 E 13 19 7 10 - - 0.0
20/11:50am 26.4 26.6 17.7 58 5.6 E 13 19 7 10 - - 0.0
20/11:40am 26.4 27.1 17.9 59 5.5 ESE 11 17 6 9 - - 0.0
20/11:30am 26.2 26.7 17.4 58 5.6 ESE 11 15 6 8 - - 0.0
20/11:20am 26.2 26.6 17.2 57 5.7 E 11 17 6 9 - - 0.0
20/11:10am 26.2 26.8 17.6 59 5.5 E 11 17 6 9 - - 0.0
20/11:00am 25.7 26.3 17.6 61 5.2 ENE 11 17 6 9 - - 0.0
20/10:50am 26.2 26.1 17.0 57 5.8 E 13 17 7 9 - - 0.0
20/10:40am 25.9 26.6 17.1 58 5.6 ESE 9 15 5 8 - - 0.0
20/10:30am 25.3 25.8 17.5 62 5.0 SE 11 17 6 9 - - 0.0
20/10:20am 25.7 26.6 17.6 61 5.2 E 9 17 5 9 - - 0.0
20/10:00am 24.7 25.2 17.5 64 4.6 SE 11 17 6 9 - - 0.0
20/09:50am 24.7 25.1 17.3 63 4.7 ESE 11 19 6 10 - - 0.0
20/09:40am 24.6 25.0 17.3 64 4.6 ESE 11 13 6 7 - - 0.0
20/09:30am 24.4 24.7 17.1 63 4.6 E 11 15 6 8 - - 0.0
20/09:20am 24.3 25.3 17.7 66 4.2 ESE 9 15 5 8 - - 0.0
20/09:10am 23.3 24.2 17.5 70 3.7 SE 9 13 5 7 - - 0.0
20/09:00am 23.4 23.9 18.3 73 3.3 ESE 13 19 7 10 - - 0.2
20/08:50am 24.0 24.7 18.0 69 3.8 ESE 11 17 6 9 - - 0.2
20/08:40am 23.5 24.1 18.7 74 3.1 ESE 13 17 7 9 - - 0.2
20/08:30am 23.0 23.6 18.6 76 2.8 ESE 13 17 7 9 - - 0.2
20/08:20am 22.6 23.4 18.2 76 2.8 ESE 11 15 6 8 - - 0.2
20/08:10am 21.9 23.3 18.6 81 2.1 SE 9 11 5 6 - - 0.2
20/08:00am 21.9 23.4 19.0 83 1.9 ESE 9 13 5 7 - - 0.2
20/07:50am 21.3 22.3 18.7 85 1.7 ESE 11 15 6 8 - - 0.2
20/07:40am 20.6 23.0 20.0 96 0.4 ESE 7 13 4 7 - - 0.2
20/07:30am 20.1 22.0 19.7 98 0.3 ESE 9 11 5 6 - - 0.0
20/07:20am 20.1 22.0 19.7 98 0.3 ESE 9 11 5 6 - - 0.0
20/07:10am 20.0 21.8 19.6 98 0.3 SE 9 11 5 6 - - 0.0
20/07:00am 20.0 21.8 19.6 98 0.3 SE 9 11 5 6 - - 0.0

Other Formats:

Comma delimited format used in spreadsheet applications
http://www.bom.gov.au/fwo/IDQ60801/IDQ60801.99123.axf

JavaScript Object Notation format (JSON) in row-major order
http://www.bom.gov.au/fwo/IDQ60801/IDQ60801.99123.json